Latest Weather Observations for Mareeba

IDQ60801

Issued at 7:35 pm EST Friday 1 August 2014 (issued every 30 minutes, with the page automatically refreshed every 10 minutes)

About weather observations | Map of weather stations | Latest weather observations for QLD | Other Formats
Station Details ID: 031210 Name: MAREEBA AIRPORT Lat: -17.07 Lon: 145.43 Height: 471.93 m
Data from the previous 72 hours. | See also: Recent months at Mareeba
Date/Time
EST
Temp
°C
App
Temp
°C
Dew
Point
Rel
Hum
%
Delta-T
°C
Wind Press
QNH
hPa
Press
MSL
hPa
Rain
since 9 am
mm
Dir
 
Spd
km/h
Gust
km/h
Spd
kts
Gust
kts
01/07:30pm 19.8 21.3 15.7 77 2.5 NNE 2 7 1 4 1018.1 - 0.0
01/07:00pm 20.8 21.4 15.8 73 3.0 NE 7 13 4 7 1017.8 - 0.0
01/06:30pm 21.9 22.1 15.7 68 3.8 NNE 9 15 5 8 1017.1 - 0.0
01/06:00pm 22.4 23.1 16.0 67 3.9 NNE 7 13 4 7 1016.7 1014.8 0.0
01/05:30pm 23.5 23.3 15.8 62 4.7 NNE 11 17 6 9 1016.5 - 0.0
01/05:00pm 24.4 24.3 15.9 59 5.3 NE 11 17 6 9 1016.2 - 0.0
01/04:30pm 25.0 24.4 15.6 56 5.8 NE 13 19 7 10 1016.1 - 0.0
01/04:00pm 26.9 26.8 15.0 48 7.3 NE 9 13 5 7 1015.8 - 0.0
01/03:30pm 26.3 26.0 14.4 48 7.2 N 9 15 5 8 1015.9 - 0.0
01/03:00pm 25.0 24.6 14.2 51 6.5 NNE 9 19 5 10 1016.1 1014.2 0.0
01/02:30pm 26.2 25.9 14.3 48 7.2 NNE 9 13 5 7 1016.4 - 0.0
01/02:00pm 26.3 25.8 15.0 49 6.9 NE 11 17 6 9 1016.7 - 0.0
01/01:30pm 25.2 25.3 14.0 49 6.8 NNE 6 13 3 7 1017.1 - 0.0
01/01:00pm 25.1 24.8 13.3 48 7.0 SE 7 15 4 8 1017.7 - 0.0
01/12:30pm 24.8 24.6 13.7 50 6.6 SW 7 13 4 7 1018.2 - 0.0
01/12:00pm 24.0 23.9 13.8 53 6.1 NE 7 15 4 8 1018.6 1016.7 0.0
01/11:30am 24.7 25.1 14.8 54 6.0 N 6 9 3 5 1019.0 - 0.0
01/11:00am 23.5 23.6 14.5 57 5.4 N 7 13 4 7 1019.3 - 0.0
01/10:30am 22.6 22.9 14.4 60 4.9 N 6 15 3 8 1019.6 - 0.0
01/10:00am 22.0 22.1 14.4 62 4.6 E 7 11 4 6 1019.9 - 0.0
01/09:30am 21.2 21.3 14.4 65 4.1 NE 7 11 4 6 1019.9 - 0.0
01/09:00am 20.1 20.1 14.2 69 3.5 SE 7 11 4 6 1019.7 1017.9 0.0
01/08:30am 18.8 18.3 14.9 78 2.3 SE 11 13 6 7 1019.5 - 0.0
01/08:00am 17.3 17.1 14.6 84 1.6 SSE 9 15 5 8 1019.2 - 0.0
01/07:30am 15.6 15.2 14.0 90 0.9 SSE 9 11 5 6 1018.8 - 0.0
01/07:00am 14.2 13.8 12.9 92 0.7 SSE 7 9 4 5 1018.5 - 0.0
01/06:30am 14.2 13.8 12.9 92 0.7 SSE 7 11 4 6 1018.3 - 0.0
01/06:00am 14.3 13.3 13.3 94 0.6 SE 11 13 6 7 1018.1 1016.2 0.0
01/05:30am 13.6 14.4 12.5 93 0.6 CALM 0 6 0 3 1018.0 - 0.0
01/05:00am 13.8 13.6 12.9 94 0.5 SSE 6 9 3 5 1017.8 - 0.0
01/04:30am 13.5 14.3 12.4 93 0.6 CALM 0 6 0 3 1017.7 - 0.0
01/04:00am 13.6 14.3 12.3 92 0.7 CALM 0 0 0 0 1017.6 - 0.0
01/03:30am 14.0 14.9 12.9 93 0.6 CALM 0 0 0 0 1017.6 - 0.0
01/03:00am 14.3 15.2 12.9 91 0.8 CALM 0 0 0 0 1017.8 1015.9 0.0
01/02:30am 14.9 16.0 13.6 92 0.7 CALM 0 0 0 0 1018.1 - 0.0
01/02:00am 15.1 16.3 13.8 92 0.7 CALM 0 0 0 0 1018.3 - 0.0
01/01:30am 15.7 17.2 14.7 94 0.6 CALM 0 0 0 0 1018.6 - 0.0
01/01:00am 15.3 16.6 14.2 93 0.6 CALM 0 4 0 2 1018.8 - 0.0
01/12:30am 15.4 16.3 14.1 92 0.8 SSW 2 6 1 3 1018.7 - 0.0
01/12:00am 15.4 16.6 13.8 90 0.9 W 0 0 0 0 1018.9 1017.0 0.0
 
Date/Time
EST
Temp
°C
App
Temp
°C
Dew
Point
Rel
Hum
%
Delta-T
°C
Wind Press
QNH
hPa
Press
MSL
hPa
Rain
since 9 am
mm
Dir
 
Spd
km/h
Gust
km/h
Spd
kts
Gust
kts
31/11:30pm 15.5 16.7 13.7 89 1.0 CALM 0 0 0 0 1019.0 - 0.0
31/11:00pm 15.9 17.1 13.9 88 1.2 CALM 0 0 0 0 1019.1 - 0.0
31/10:30pm 16.4 17.7 14.2 87 1.3 CALM 0 0 0 0 1019.2 - 0.0
31/10:00pm 17.1 18.6 14.7 86 1.4 CALM 0 0 0 0 1019.1 - 0.0
31/09:30pm 17.0 17.3 14.5 85 1.5 W 6 7 3 4 1019.1 - 0.0
31/09:00pm 18.1 19.1 15.4 84 1.6 W 4 7 2 4 1018.9 1017.3 0.0
31/08:30pm 19.0 19.6 15.7 81 2.0 WNW 7 9 4 5 1018.8 - 0.0
31/08:00pm 19.4 21.4 15.9 80 2.1 CALM 0 0 0 0 1018.6 - 0.0
31/07:30pm 19.4 20.2 15.9 80 2.1 ENE 6 9 3 5 1018.1 - 0.0
31/07:00pm 19.5 19.3 15.8 79 2.2 NE 11 20 6 11 1017.7 - 0.0
31/06:30pm 19.9 19.7 15.7 77 2.5 NNE 11 20 6 11 1017.4 - 0.0
31/06:00pm 20.4 19.4 15.6 74 2.9 NNE 15 24 8 13 1017.2 1015.6 0.0
31/05:30pm 21.6 21.0 15.7 69 3.6 NE 13 20 7 11 1017.1 - 0.0
31/05:00pm 21.8 21.2 15.6 68 3.8 NNE 13 20 7 11 1016.8 - 0.0
31/04:30pm 22.5 21.9 15.6 65 4.2 NNE 13 20 7 11 1016.6 - 0.0
31/04:00pm 23.2 22.9 15.5 62 4.7 NE 11 19 6 10 1016.3 - 0.0
31/03:30pm 24.5 23.7 15.1 55 5.8 NNE 13 20 7 11 1016.1 - 0.0
31/03:00pm 23.7 22.3 15.5 60 5.0 NNE 17 24 9 13 1016.1 1014.5 0.0
31/02:30pm 24.9 24.4 13.8 50 6.7 E 9 15 5 8 1016.4 - 0.0
31/02:00pm 25.3 24.8 13.8 49 6.9 NE 9 15 5 8 1016.7 - 0.0
31/01:30pm 24.7 23.7 12.3 46 7.3 ESE 9 17 5 9 1017.2 - 0.0
31/01:00pm 24.7 24.7 13.6 50 6.6 NNE 6 9 3 5 1017.6 - 0.0
31/12:30pm 25.5 24.4 14.3 50 6.8 SE 13 17 7 9 1017.9 - 0.0
31/12:00pm 24.1 23.4 13.3 51 6.4 E 9 17 5 9 1018.5 1016.9 0.0
31/11:30am 23.1 22.2 13.6 55 5.6 ESE 11 19 6 10 1019.0 - 0.0
31/11:00am 23.3 22.4 13.8 55 5.7 SE 11 19 6 10 1019.3 - 0.0
31/10:30am 22.3 21.1 13.9 59 5.0 E 13 19 7 10 1019.6 - 0.0
31/10:00am 22.1 20.6 14.2 61 4.7 SE 15 24 8 13 1020.1 - 0.0
31/09:30am 21.5 22.3 14.9 66 4.0 S 4 9 2 5 1020.2 - 0.0
31/09:00am 20.2 20.9 14.6 70 3.3 SSE 4 7 2 4 1020.2 1018.6 0.0
31/08:30am 19.1 19.3 14.8 76 2.6 SSE 7 11 4 6 1020.0 - 0.0
31/08:00am 18.0 18.1 15.4 85 1.6 SSE 9 13 5 7 1019.9 - 0.0
31/07:30am 15.4 16.1 14.6 95 0.5 S 4 11 2 6 1019.4 - 0.0
31/07:00am 13.3 13.6 12.2 93 0.6 SSE 2 9 1 5 1019.3 - 0.0
31/06:30am 13.4 14.0 12.0 91 0.8 CALM 0 0 0 0 1019.2 - 0.0
31/06:00am 13.6 14.2 12.0 90 0.9 CALM 0 0 0 0 1019.0 1017.4 0.0
31/05:30am 14.6 15.5 13.0 90 0.9 CALM 0 0 0 0 1018.9 - 0.0
31/05:00am 15.5 16.7 13.7 89 1.0 CALM 0 0 0 0 1018.8 - 0.0
31/04:30am 15.9 15.9 14.1 89 1.0 SSE 7 9 4 5 1018.8 - 0.0
31/04:00am 16.7 18.4 15.1 90 0.9 CALM 0 0 0 0 1018.8 - 0.0
31/03:30am 16.6 18.3 15.1 91 0.9 CALM 0 0 0 0 1018.9 - 0.0
31/03:00am 15.9 17.4 14.6 92 0.8 CALM 0 0 0 0 1018.9 1017.3 0.0
31/02:30am 15.6 16.8 13.8 89 1.0 CALM 0 0 0 0 1019.0 - 0.0
31/02:00am 16.5 16.4 14.9 90 0.9 SE 9 13 5 7 1019.1 - 0.0
31/01:30am 16.1 17.4 14.1 88 1.2 CALM 0 0 0 0 1019.3 - 0.0
31/01:00am 17.2 19.0 15.4 89 1.1 CALM 0 0 0 0 1019.4 - 0.0
31/12:30am 17.2 19.0 15.4 89 1.1 CALM 0 0 0 0 1019.7 - 0.0
31/12:00am 17.0 18.7 15.2 89 1.1 CALM 0 0 0 0 1020.0 1018.4 0.0
 
Date/Time
EST
Temp
°C
App
Temp
°C
Dew
Point
Rel
Hum
%
Delta-T
°C
Wind Press
QNH
hPa
Press
MSL
hPa
Rain
since 9 am
mm
Dir
 
Spd
km/h
Gust
km/h
Spd
kts
Gust
kts
30/11:30pm 16.8 18.4 14.8 88 1.2 CALM 0 0 0 0 1020.0 - 0.0
30/11:00pm 17.3 18.0 15.5 89 1.1 E 6 9 3 5 1020.2 - 0.0
30/10:30pm 17.2 17.8 15.2 88 1.2 ENE 6 9 3 5 1020.4 - 0.0
30/10:00pm 17.6 17.8 14.7 83 1.7 NE 7 11 4 6 1020.5 - 0.0
30/09:30pm 18.4 18.7 14.9 80 2.1 E 7 13 4 7 1020.5 - 0.0
30/09:00pm 17.8 18.0 14.3 80 2.0 E 6 7 3 4 1020.4 1018.8 0.0
30/08:30pm 18.1 18.3 14.2 78 2.3 NE 6 9 3 5 1020.2 - 0.0
30/08:00pm 18.1 18.1 14.2 78 2.3 ENE 7 9 4 5 1020.0 - 0.0
30/07:30pm 17.1 18.1 13.2 78 2.2 CALM 0 6 0 3 1019.5 - 0.0
30/07:00pm 18.5 18.2 13.4 72 3.0 E 7 11 4 6 1019.1 - 0.0
30/06:30pm 19.3 18.0 13.7 70 3.3 E 13 22 7 12 1018.9 - 0.0
30/06:00pm 20.1 19.7 14.0 68 3.6 ENE 9 17 5 9 1018.7 1017.1 0.0
30/05:30pm 20.6 18.2 13.8 65 4.0 ESE 19 24 10 13 1018.5 - 0.0
30/05:00pm 21.9 19.9 13.8 60 4.8 ESE 17 22 9 12 1018.1 - 0.0
30/04:30pm 22.2 19.9 13.0 56 5.4 E 17 28 9 15 1018.0 - 0.0
30/04:00pm 23.5 21.4 13.7 54 5.8 SE 17 28 9 15 1017.8 - 0.0
30/03:30pm 23.5 21.6 13.1 52 6.1 ESE 15 20 8 11 1017.8 - 0.0
30/03:00pm 23.9 21.0 12.8 49 6.5 SE 20 26 11 14 1017.9 1016.3 0.0
30/02:30pm 24.0 21.1 12.9 50 6.5 SE 20 28 11 15 1018.1 - 0.0
30/02:00pm 23.4 20.5 13.0 52 6.1 ESE 20 30 11 16 1018.3 - 0.0
30/01:30pm 23.7 21.0 13.6 53 6.0 ESE 20 33 11 18 1018.7 - 0.0
30/01:00pm 23.1 19.5 14.1 57 5.4 SSE 26 35 14 19 1019.0 - 0.0
30/12:30pm 24.0 21.1 12.9 50 6.5 SE 20 28 11 15 1019.3 - 0.0
30/12:00pm 23.6 21.1 13.5 53 6.0 ESE 19 28 10 15 1020.0 1018.4 0.0
30/11:30am 22.9 21.1 14.5 59 5.1 ESE 17 26 9 14 1020.5 - 0.0
30/11:00am 22.5 20.0 14.1 59 5.0 SE 20 24 11 13 1020.9 - 0.0
30/10:30am 21.3 18.8 13.5 61 4.6 SE 19 26 10 14 1021.2 - 0.0
30/10:00am 22.4 20.0 14.5 61 4.7 SSE 20 28 11 15 1021.4 - 0.0
30/09:30am 20.8 18.0 14.2 66 3.9 ESE 22 30 12 16 1021.2 - 0.0
30/09:00am 20.5 18.8 14.6 69 3.5 ESE 17 24 9 13 1021.2 1019.6 0.2
30/08:30am 19.7 19.0 15.4 76 2.6 SE 13 20 7 11 1021.0 - 0.2
30/08:00am 18.5 18.0 15.0 80 2.1 SE 11 15 6 8 1021.0 - 0.2
30/07:30am 17.6 17.1 15.0 85 1.5 SE 11 17 6 9 1020.7 - 0.2
30/07:00am 16.6 16.4 14.6 88 1.2 SSE 9 13 5 7 1020.5 - 0.2
30/06:30am 16.7 15.4 14.7 88 1.2 SSE 15 19 8 10 1020.3 - 0.2
30/06:00am 16.4 15.7 14.4 88 1.2 SSE 11 17 6 9 1020.0 1018.4 0.2
30/05:30am 16.3 15.0 14.7 90 0.9 SSE 15 20 8 11 1019.9 - 0.2
30/05:00am 14.9 14.6 13.4 91 0.9 SSE 7 11 4 6 1019.7 - 0.2
30/04:30am 15.4 15.7 13.4 88 1.1 SE 4 9 2 5 1019.5 - 0.2
30/04:00am 16.1 14.9 14.1 88 1.2 SSE 13 17 7 9 1019.5 - 0.2
30/03:30am 16.2 14.7 14.2 88 1.2 SSE 15 20 8 11 1019.5 - 0.2
30/03:00am 16.0 14.4 13.8 87 1.3 SSE 15 20 8 11 1019.7 1018.2 0.2
30/02:30am 15.9 14.2 13.7 87 1.3 SSE 15 20 8 11 1020.0 - 0.2
30/02:00am 15.9 14.2 13.6 86 1.3 SSE 15 20 8 11 1020.2 - 0.2
30/01:30am 15.8 13.7 13.5 86 1.3 SSE 17 24 9 13 1020.5 - 0.2
30/01:00am 15.7 13.2 13.4 86 1.3 SSE 19 26 10 14 1020.8 - 0.2
30/12:30am 15.8 12.7 13.5 86 1.3 SSE 22 32 12 17 1021.0 - 0.2
30/12:00am 15.6 12.5 13.3 86 1.3 SE 22 30 12 16 1021.2 1019.6 0.2
 
Date/Time
EST
Temp
°C
App
Temp
°C
Dew
Point
Rel
Hum
%
Delta-T
°C
Wind Press
QNH
hPa
Press
MSL
hPa
Rain
since 9 am
mm
Dir
 
Spd
km/h
Gust
km/h
Spd
kts
Gust
kts
29/11:30pm 15.6 12.9 13.4 87 1.3 SSE 20 28 11 15 1021.1 - 0.2
29/11:00pm 15.7 12.6 13.5 87 1.3 SSE 22 30 12 16 1021.2 - 0.2
29/10:30pm 15.5 12.7 13.3 87 1.3 SSE 20 28 11 15 1021.4 - 0.2
29/10:00pm 15.6 12.9 13.4 87 1.3 SSE 20 28 11 15 1021.4 - 0.2
29/09:30pm 15.9 13.3 13.2 84 1.5 SSE 19 28 10 15 1021.4 - 0.2
29/09:00pm 16.0 14.1 13.1 83 1.6 SSE 15 19 8 10 1021.3 1019.8 0.2
29/08:30pm 16.4 14.5 12.9 80 2.0 SSE 15 20 8 11 1021.0 - 0.2
29/08:00pm 16.6 14.7 12.9 79 2.1 SSE 15 19 8 10 1020.9 - 0.2

Other Formats:

Comma delimited format used in spreadsheet applications
http://www.bom.gov.au/fwo/IDQ60801/IDQ60801.95286.axf

JavaScript Object Notation format (JSON) in row-major order
http://www.bom.gov.au/fwo/IDQ60801/IDQ60801.95286.json